createdAt,value
2019-03-29T00:02:29.269Z,60.74
2019-03-29T00:04:59.343Z,60.86
2019-03-29T00:07:39.580Z,60.83
2019-03-29T00:10:01.224Z,60.77
2019-03-29T00:12:32.246Z,60.71
2019-03-29T00:15:02.383Z,60.53
2019-03-29T00:17:34.130Z,60.80
2019-03-29T00:20:06.219Z,60.78
2019-03-29T00:22:36.271Z,60.71
2019-03-29T00:25:07.175Z,60.58
2019-03-29T00:27:37.643Z,60.50
2019-03-29T00:30:07.805Z,60.33
2019-03-29T00:32:37.868Z,59.51
2019-03-29T00:35:08.382Z,59.34
2019-03-29T00:37:52.512Z,59.02
2019-03-29T00:40:10.289Z,59.11
2019-03-29T00:42:40.377Z,59.41
2019-03-29T00:45:11.199Z,59.39
2019-03-29T00:47:41.236Z,58.77
2019-03-29T00:50:11.371Z,58.90
2019-03-29T00:52:41.458Z,59.11
2019-03-29T00:55:11.528Z,58.97
2019-03-29T00:57:41.618Z,58.95
2019-03-29T01:00:12.033Z,58.72
2019-03-29T01:02:42.185Z,58.75
2019-03-29T01:05:12.346Z,58.31
2019-03-29T01:07:42.458Z,58.64
2019-03-29T01:10:12.603Z,58.93
2019-03-29T01:12:42.721Z,59.10
2019-03-29T01:15:12.992Z,59.20
2019-03-29T01:17:43.044Z,59.03
2019-03-29T01:20:13.326Z,59.12
2019-03-29T01:22:43.391Z,58.89
2019-03-29T01:25:13.747Z,58.76
2019-03-29T01:27:43.810Z,58.53
2019-03-29T01:30:13.974Z,58.40
2019-03-29T01:32:44.052Z,58.50
2019-03-29T01:35:14.241Z,58.72
2019-03-29T01:37:44.308Z,58.85
2019-03-29T01:40:15.510Z,59.02
2019-03-29T01:42:45.589Z,58.97
2019-03-29T01:45:16.710Z,58.85
2019-03-29T01:47:46.776Z,58.73
2019-03-29T01:50:17.655Z,58.75
2019-03-29T01:52:47.746Z,58.68
2019-03-29T01:55:17.823Z,58.66
2019-03-29T01:57:47.916Z,58.71
2019-03-29T02:00:31.053Z,58.85
2019-03-29T02:03:01.224Z,58.91
2019-03-29T02:05:31.362Z,58.75
2019-03-29T02:08:01.469Z,58.76
2019-03-29T02:10:32.762Z,58.77
2019-03-29T02:13:02.874Z,58.75
2019-03-29T02:15:32.948Z,58.52
2019-03-29T02:18:03.062Z,58.82
2019-03-29T02:20:34.199Z,58.81
2019-03-29T02:23:04.361Z,58.79
2019-03-29T02:25:34.464Z,58.80
2019-03-29T02:28:04.629Z,58.65
2019-03-29T02:30:34.691Z,58.56
2019-03-29T02:33:04.766Z,58.41
2019-03-29T02:35:34.845Z,58.57
2019-03-29T02:38:04.971Z,59.40
2019-03-29T02:40:35.022Z,60.67
2019-03-29T02:43:05.146Z,60.97
2019-03-29T02:45:35.207Z,60.65
2019-03-29T02:48:05.437Z,60.70
2019-03-29T02:50:36.658Z,60.35
2019-03-29T02:53:06.920Z,60.46
2019-03-29T02:55:37.006Z,60.26
2019-03-29T02:58:07.167Z,60.30
2019-03-29T03:00:37.247Z,59.99
2019-03-29T03:03:07.318Z,59.86
2019-03-29T03:05:37.428Z,59.91
2019-03-29T03:08:07.497Z,59.88
2019-03-29T03:10:37.643Z,59.76
2019-03-29T03:13:07.739Z,59.73
2019-03-29T03:15:37.831Z,59.65
2019-03-29T03:18:07.892Z,59.47
2019-03-29T03:20:37.994Z,59.63
2019-03-29T03:23:08.079Z,59.75
2019-03-29T03:25:38.179Z,59.83
2019-03-29T03:28:08.254Z,59.65
2019-03-29T03:30:38.521Z,59.61
2019-03-29T03:33:08.841Z,59.61
2019-03-29T03:35:38.907Z,59.47
2019-03-29T03:38:08.996Z,59.42
2019-03-29T03:40:39.057Z,59.31
2019-03-29T03:43:09.135Z,59.29
2019-03-29T03:45:39.208Z,59.48
2019-03-29T03:48:09.360Z,59.55
2019-03-29T03:50:43.077Z,59.32
2019-03-29T03:53:13.142Z,59.27
2019-03-29T03:55:43.588Z,59.38
2019-03-29T03:58:13.925Z,59.38
2019-03-29T04:00:57.938Z,59.40
2019-03-29T04:03:28.536Z,59.57
2019-03-29T04:05:58.920Z,59.52
2019-03-29T04:08:29.087Z,59.29
2019-03-29T04:10:59.245Z,59.45
2019-03-29T04:13:29.329Z,59.48
2019-03-29T04:15:59.397Z,59.56
2019-03-29T04:18:29.476Z,59.38
2019-03-29T04:20:59.559Z,59.39
2019-03-29T04:23:29.639Z,59.38
2019-03-29T04:25:59.728Z,59.57
2019-03-29T04:28:29.845Z,59.69
2019-03-29T04:30:59.921Z,59.70
2019-03-29T04:33:30.000Z,60.07
2019-03-29T04:36:00.076Z,60.15
2019-03-29T04:38:30.154Z,59.95
2019-03-29T04:41:00.360Z,59.92
2019-03-29T04:43:30.472Z,59.94
2019-03-29T04:46:00.575Z,59.83
2019-03-29T04:48:30.699Z,60.03
2019-03-29T04:51:00.792Z,60.02
2019-03-29T04:53:30.896Z,60.37
2019-03-29T04:56:01.017Z,59.49
2019-03-29T04:58:31.130Z,59.54
2019-03-29T05:01:01.194Z,59.51
2019-03-29T05:03:31.279Z,59.78
2019-03-29T05:06:01.497Z,59.84
2019-03-29T05:08:31.515Z,59.54
2019-03-29T05:11:01.626Z,59.69
2019-03-29T05:13:31.698Z,59.96
2019-03-29T05:16:02.701Z,60.21
2019-03-29T05:18:32.752Z,60.53
2019-03-29T05:21:02.860Z,60.54
2019-03-29T05:23:32.929Z,60.54
2019-03-29T05:26:03.104Z,60.55
2019-03-29T05:28:33.252Z,60.90
2019-03-29T05:31:03.315Z,60.58
2019-03-29T05:33:33.375Z,61.09
2019-03-29T05:36:03.442Z,61.12
2019-03-29T05:38:33.549Z,61.13
2019-03-29T05:41:04.768Z,61.30
2019-03-29T05:43:35.934Z,61.44
2019-03-29T05:46:06.024Z,61.22
2019-03-29T05:48:36.338Z,60.90
2019-03-29T05:51:06.390Z,60.81
2019-03-29T05:53:36.470Z,60.77
2019-03-29T05:56:06.658Z,60.85
2019-03-29T05:58:36.794Z,60.87
2019-03-29T06:01:06.931Z,61.04
2019-03-29T06:03:37.002Z,61.30
2019-03-29T06:06:07.116Z,61.17
2019-03-29T06:08:37.188Z,62.04
2019-03-29T06:11:08.503Z,62.33
2019-03-29T06:13:38.594Z,63.32
2019-03-29T06:16:08.666Z,63.42
2019-03-29T06:18:38.789Z,63.15
2019-03-29T06:21:08.861Z,63.74
2019-03-29T06:23:38.971Z,63.95
2019-03-29T06:26:09.040Z,64.13
2019-03-29T06:28:39.240Z,63.93
2019-03-29T06:31:09.526Z,63.81
2019-03-29T06:33:39.851Z,63.36
2019-03-29T06:36:11.198Z,63.29
2019-03-29T06:38:42.665Z,63.45
2019-03-29T06:41:12.724Z,63.41
2019-03-29T06:43:42.816Z,63.19
2019-03-29T06:46:12.869Z,63.47
2019-03-29T06:48:42.956Z,63.63
2019-03-29T06:51:13.008Z,63.64
2019-03-29T06:53:43.099Z,63.91
2019-03-29T06:56:13.168Z,63.96
2019-03-29T06:58:43.290Z,63.75
2019-03-29T07:01:13.440Z,64.12
2019-03-29T07:03:43.510Z,63.88
2019-03-29T07:06:13.568Z,63.29
2019-03-29T07:08:43.644Z,63.34
2019-03-29T07:11:17.803Z,62.82
2019-03-29T07:13:56.735Z,62.29
2019-03-29T07:16:17.256Z,61.84
2019-03-29T07:18:47.316Z,62.40
2019-03-29T07:21:21.742Z,62.49
2019-03-29T07:23:50.619Z,62.77
2019-03-29T07:26:20.697Z,61.79
2019-03-29T07:28:50.756Z,61.78
2019-03-29T07:31:20.834Z,61.43
2019-03-29T07:33:50.893Z,61.37
2019-03-29T07:36:20.969Z,60.26
2019-03-29T07:38:51.088Z,60.20
2019-03-29T07:41:31.590Z,60.21
2019-03-29T07:43:53.966Z,60.02
2019-03-29T07:46:24.034Z,60.68
2019-03-29T07:48:54.102Z,60.07
2019-03-29T07:51:24.175Z,60.22
2019-03-29T07:53:54.241Z,60.47
2019-03-29T07:56:24.306Z,58.93
2019-03-29T07:58:54.370Z,57.99
2019-03-29T08:01:24.424Z,57.72
2019-03-29T08:03:54.484Z,58.63
2019-03-29T08:06:24.560Z,58.86
2019-03-29T08:08:54.616Z,59.00
2019-03-29T08:11:26.492Z,58.61
2019-03-29T08:13:56.514Z,58.11
2019-03-29T08:16:26.598Z,57.19
2019-03-29T08:18:56.682Z,57.95
2019-03-29T08:21:26.770Z,57.68
2019-03-29T08:23:56.865Z,57.62
2019-03-29T08:26:26.928Z,56.75
2019-03-29T08:28:57.081Z,57.43
2019-03-29T08:31:27.131Z,57.12
2019-03-29T08:33:57.218Z,57.30
2019-03-29T08:36:27.262Z,57.19
2019-03-29T08:38:57.330Z,56.24
2019-03-29T08:41:27.418Z,56.15
2019-03-29T08:43:57.476Z,56.60
2019-03-29T08:46:27.555Z,56.34
2019-03-29T08:48:57.659Z,55.92
2019-03-29T08:51:27.728Z,55.81
2019-03-29T08:53:57.784Z,55.31
2019-03-29T08:56:28.039Z,54.71
2019-03-29T08:58:58.104Z,53.83
2019-03-29T09:01:28.163Z,54.99
2019-03-29T09:04:05.058Z,54.62
2019-03-29T09:06:30.540Z,54.91
2019-03-29T09:09:00.886Z,54.18
2019-03-29T09:11:32.632Z,54.31
2019-03-29T09:14:02.731Z,54.39
2019-03-29T09:16:32.794Z,54.29
2019-03-29T09:19:02.878Z,54.05
2019-03-29T09:21:33.014Z,54.88
2019-03-29T09:24:03.108Z,54.42
2019-03-29T09:26:33.186Z,53.44
2019-03-29T09:29:03.246Z,52.32
2019-03-29T09:31:33.322Z,52.66
2019-03-29T09:34:03.386Z,53.02
2019-03-29T09:36:33.447Z,52.93
2019-03-29T09:39:04.841Z,52.16
2019-03-29T09:41:34.923Z,51.87
2019-03-29T09:44:05.166Z,51.59
2019-03-29T09:46:35.212Z,51.26
2019-03-29T09:49:08.266Z,51.96
2019-03-29T09:51:37.129Z,51.62
2019-03-29T09:54:07.199Z,51.59
2019-03-29T09:56:39.003Z,50.31
2019-03-29T09:59:09.078Z,50.91
2019-03-29T10:01:39.139Z,50.75
2019-03-29T10:04:09.238Z,49.14
2019-03-29T10:06:39.290Z,49.57
2019-03-29T10:09:09.369Z,50.37
2019-03-29T10:11:39.456Z,50.50
2019-03-29T10:14:09.533Z,51.01
2019-03-29T10:16:39.614Z,50.98
2019-03-29T10:19:09.768Z,50.49
2019-03-29T10:21:39.813Z,50.40
2019-03-29T10:24:09.909Z,50.41
2019-03-29T10:26:40.009Z,51.14
2019-03-29T10:29:10.102Z,50.05
2019-03-29T10:31:40.144Z,49.50
2019-03-29T10:34:10.217Z,49.25
2019-03-29T10:36:40.303Z,49.29
2019-03-29T10:39:13.382Z,49.19
2019-03-29T10:41:43.522Z,49.04
2019-03-29T10:44:13.580Z,48.92
2019-03-29T10:46:43.640Z,47.90
2019-03-29T10:49:13.761Z,48.39
2019-03-29T10:51:43.817Z,47.72
2019-03-29T10:54:13.980Z,48.03
2019-03-29T10:56:44.030Z,47.83
2019-03-29T10:59:26.610Z,47.70
2019-03-29T11:01:45.845Z,46.96
2019-03-29T11:04:16.023Z,48.01
2019-03-29T11:06:46.076Z,48.01
2019-03-29T11:09:16.156Z,46.98
2019-03-29T11:11:46.198Z,47.88
2019-03-29T11:14:16.252Z,48.52
2019-03-29T11:16:46.337Z,48.31
2019-03-29T11:19:16.623Z,48.68
2019-03-29T11:21:46.852Z,47.81
2019-03-29T11:24:17.125Z,46.69
2019-03-29T11:26:47.308Z,47.02
2019-03-29T11:29:17.371Z,46.77
2019-03-29T11:31:47.496Z,47.14
2019-03-29T11:34:20.831Z,47.39
2019-03-29T11:36:52.450Z,47.19
2019-03-29T11:39:21.139Z,47.47
2019-03-29T11:41:51.247Z,46.60
2019-03-29T11:44:21.373Z,45.41
2019-03-29T11:46:51.432Z,46.38
2019-03-29T11:49:21.517Z,46.08
2019-03-29T11:51:51.623Z,46.09
2019-03-29T11:54:21.739Z,45.79
2019-03-29T11:56:51.856Z,46.15
2019-03-29T11:59:22.027Z,46.16
2019-03-29T12:01:52.120Z,46.94
2019-03-29T12:04:22.196Z,45.73
2019-03-29T12:06:52.270Z,45.32
2019-03-29T12:09:22.386Z,46.12
2019-03-29T12:11:52.470Z,45.11
2019-03-29T12:14:22.559Z,45.81
2019-03-29T12:16:52.675Z,45.35
2019-03-29T12:19:22.760Z,45.06
2019-03-29T12:21:52.873Z,47.07
2019-03-29T12:24:24.192Z,45.78
2019-03-29T12:26:55.097Z,45.87
2019-03-29T12:29:25.292Z,44.74
2019-03-29T12:31:55.354Z,44.57
2019-03-29T12:34:25.525Z,44.70
2019-03-29T12:36:55.680Z,45.79
2019-03-29T12:39:25.749Z,44.01
2019-03-29T12:41:55.860Z,44.10
2019-03-29T12:44:26.918Z,44.24
2019-03-29T12:46:56.991Z,44.75
2019-03-29T12:49:27.101Z,44.17
2019-03-29T12:51:57.268Z,44.88
2019-03-29T12:54:27.414Z,44.50
2019-03-29T12:56:57.507Z,43.94
2019-03-29T12:59:27.638Z,42.15
2019-03-29T13:01:57.815Z,44.65
2019-03-29T13:04:27.955Z,44.06
2019-03-29T13:06:58.083Z,42.70
2019-03-29T13:09:28.223Z,42.95
2019-03-29T13:11:58.405Z,42.10
2019-03-29T13:14:28.506Z,42.83
2019-03-29T13:16:58.577Z,43.29
2019-03-29T13:19:28.655Z,43.76
2019-03-29T13:21:58.851Z,44.05
2019-03-29T13:24:28.902Z,43.69
2019-03-29T13:27:00.076Z,42.66
2019-03-29T13:29:30.221Z,42.97
2019-03-29T13:32:00.293Z,42.91
2019-03-29T13:34:30.427Z,42.62
2019-03-29T13:37:00.579Z,42.02
2019-03-29T13:39:31.551Z,43.53
2019-03-29T13:42:01.691Z,42.22
2019-03-29T13:44:31.816Z,42.07
2019-03-29T13:47:01.891Z,43.05
2019-03-29T13:49:32.054Z,42.93
2019-03-29T13:52:02.190Z,43.52
2019-03-29T13:54:32.260Z,42.76
2019-03-29T13:57:02.383Z,41.51
2019-03-29T13:59:32.455Z,44.17
2019-03-29T14:02:02.560Z,42.71
2019-03-29T14:04:32.652Z,42.08
2019-03-29T14:07:02.793Z,41.97
2019-03-29T14:09:32.888Z,42.37
2019-03-29T14:12:03.098Z,42.29
2019-03-29T14:14:38.839Z,42.86
2019-03-29T14:17:09.004Z,41.64
2019-03-29T14:19:39.073Z,42.86
2019-03-29T14:22:09.230Z,42.17
2019-03-29T14:24:39.291Z,42.44
2019-03-29T14:27:09.375Z,42.06
2019-03-29T14:29:39.493Z,42.25
2019-03-29T14:32:09.587Z,42.05
2019-03-29T14:34:39.785Z,43.19
2019-03-29T14:37:09.859Z,42.75
2019-03-29T14:39:39.940Z,41.50
2019-03-29T14:42:12.610Z,41.67
2019-03-29T14:44:52.149Z,40.21
2019-03-29T14:47:13.619Z,40.93
2019-03-29T14:49:44.319Z,40.25
2019-03-29T14:52:14.420Z,38.07
2019-03-29T14:54:45.554Z,38.41
2019-03-29T14:57:15.639Z,39.37
2019-03-29T14:59:45.708Z,40.20
2019-03-29T15:02:15.903Z,40.75
2019-03-29T15:04:46.426Z,40.79
2019-03-29T15:07:16.595Z,41.10
2019-03-29T15:09:47.142Z,40.53
2019-03-29T15:12:17.224Z,41.10
2019-03-29T15:14:47.409Z,41.81
2019-03-29T15:17:17.503Z,41.59
2019-03-29T15:19:47.599Z,42.38
2019-03-29T15:22:17.723Z,41.66
2019-03-29T15:24:47.788Z,42.16
2019-03-29T15:27:17.904Z,42.39
2019-03-29T15:29:47.979Z,42.73
2019-03-29T15:32:18.059Z,42.19
2019-03-29T15:34:48.163Z,42.35
2019-03-29T15:37:18.246Z,43.19
2019-03-29T15:39:48.301Z,43.86
2019-03-29T15:42:20.515Z,43.21
2019-03-29T15:44:50.170Z,42.86
2019-03-29T15:47:20.323Z,43.35
2019-03-29T15:49:56.101Z,42.83
2019-03-29T15:52:22.177Z,43.25
2019-03-29T15:54:52.257Z,43.24
2019-03-29T15:57:22.336Z,42.65
2019-03-29T15:59:52.411Z,43.41
2019-03-29T16:02:22.776Z,42.57
2019-03-29T16:04:52.832Z,43.38
2019-03-29T16:07:22.908Z,43.74
2019-03-29T16:09:53.013Z,44.99
2019-03-29T16:12:23.092Z,44.21
2019-03-29T16:14:53.146Z,44.26
2019-03-29T16:17:24.278Z,43.56
2019-03-29T16:19:54.357Z,43.35
2019-03-29T16:22:24.410Z,43.64
2019-03-29T16:24:54.498Z,44.38
2019-03-29T16:27:25.279Z,44.08
2019-03-29T16:29:56.667Z,43.74
2019-03-29T16:32:26.780Z,43.69
2019-03-29T16:34:56.848Z,43.72
2019-03-29T16:37:26.920Z,45.05
2019-03-29T16:39:57.086Z,43.88
2019-03-29T16:42:27.416Z,44.63
2019-03-29T16:44:57.509Z,45.46
2019-03-29T16:47:27.612Z,44.82
2019-03-29T16:49:57.683Z,45.63
2019-03-29T16:52:27.827Z,45.13
2019-03-29T16:54:57.920Z,43.69
2019-03-29T16:57:28.032Z,43.36
2019-03-29T16:59:58.111Z,44.32
2019-03-29T17:02:28.272Z,44.09
2019-03-29T17:04:59.336Z,43.83
2019-03-29T17:07:29.417Z,44.12
2019-03-29T17:09:59.495Z,43.46
2019-03-29T17:12:29.595Z,43.93
2019-03-29T17:14:59.629Z,43.63
2019-03-29T17:17:29.706Z,44.45
2019-03-29T17:19:59.810Z,45.20
2019-03-29T17:22:29.884Z,46.02
2019-03-29T17:24:59.963Z,46.36
2019-03-29T17:27:30.426Z,46.17
2019-03-29T17:30:00.503Z,46.31
2019-03-29T17:32:31.358Z,47.29
2019-03-29T17:35:01.425Z,47.74
2019-03-29T17:37:31.491Z,47.92
2019-03-29T17:40:01.653Z,47.95
2019-03-29T17:42:31.716Z,47.59
2019-03-29T17:45:01.819Z,47.69
2019-03-29T17:47:31.927Z,47.66
2019-03-29T17:50:01.988Z,47.45
2019-03-29T17:52:32.455Z,47.43
2019-03-29T17:55:02.559Z,47.39
2019-03-29T17:57:32.694Z,47.64
2019-03-29T18:00:02.807Z,47.41
2019-03-29T18:02:32.954Z,47.38
2019-03-29T18:05:03.064Z,46.84
2019-03-29T18:07:33.315Z,46.92
2019-03-29T18:10:04.594Z,46.77
2019-03-29T18:12:34.613Z,46.71
2019-03-29T18:15:04.891Z,47.08
2019-03-29T18:17:34.974Z,47.09
2019-03-29T18:20:06.423Z,47.35
2019-03-29T18:22:36.507Z,47.96
2019-03-29T18:25:06.877Z,47.76
2019-03-29T18:27:36.985Z,47.99
2019-03-29T18:30:07.210Z,48.36
2019-03-29T18:32:37.359Z,48.70
2019-03-29T18:35:07.667Z,48.95
2019-03-29T18:37:37.822Z,49.08
2019-03-29T18:40:10.663Z,49.38
2019-03-29T18:42:40.777Z,49.52
2019-03-29T18:45:10.965Z,49.87
2019-03-29T18:47:41.099Z,50.05
2019-03-29T18:50:12.311Z,50.10
2019-03-29T18:52:42.871Z,50.23
2019-03-29T18:55:13.100Z,50.38
2019-03-29T18:57:43.167Z,50.61
2019-03-29T19:00:13.348Z,50.71
2019-03-29T19:02:43.432Z,51.07
2019-03-29T19:05:23.655Z,51.21
2019-03-29T19:07:53.732Z,51.66
2019-03-29T19:10:23.829Z,52.06
2019-03-29T19:12:53.909Z,52.54
2019-03-29T19:15:24.053Z,52.79
2019-03-29T19:17:54.270Z,52.85
2019-03-29T19:20:27.664Z,53.12
2019-03-29T19:22:56.303Z,53.43
2019-03-29T19:25:26.582Z,53.50
2019-03-29T19:27:56.756Z,53.33
2019-03-29T19:30:26.915Z,53.57
2019-03-29T19:32:56.989Z,54.59
2019-03-29T19:35:27.200Z,53.00
2019-03-29T19:37:57.283Z,52.98
2019-03-29T19:40:27.394Z,53.03
2019-03-29T19:42:57.966Z,52.88
2019-03-29T19:45:28.042Z,52.78
2019-03-29T19:47:58.140Z,52.88
2019-03-29T19:50:28.263Z,52.90
2019-03-29T19:52:58.356Z,52.90
2019-03-29T19:55:28.448Z,52.88
2019-03-29T19:57:58.551Z,52.99
2019-03-29T20:00:40.526Z,53.22
2019-03-29T20:03:10.871Z,53.50
2019-03-29T20:05:40.985Z,53.60
2019-03-29T20:08:11.085Z,53.74
2019-03-29T20:10:41.172Z,54.01
2019-03-29T20:13:11.282Z,54.15
2019-03-29T20:15:41.371Z,54.11
2019-03-29T20:18:11.533Z,54.39
2019-03-29T20:20:41.620Z,54.43
2019-03-29T20:23:11.679Z,54.68
2019-03-29T20:25:41.818Z,54.82
2019-03-29T20:28:11.899Z,55.04
2019-03-29T20:30:41.991Z,55.36
2019-03-29T20:33:13.426Z,55.27
2019-03-29T20:35:43.738Z,55.39
2019-03-29T20:38:13.800Z,55.51
2019-03-29T20:40:44.884Z,55.77
2019-03-29T20:43:14.942Z,55.83
2019-03-29T20:45:45.040Z,55.62
2019-03-29T20:48:15.138Z,55.79
2019-03-29T20:50:45.295Z,55.89
2019-03-29T20:53:15.425Z,56.71
2019-03-29T20:55:45.638Z,56.71
2019-03-29T20:58:15.703Z,56.38
2019-03-29T21:00:45.793Z,56.20
2019-03-29T21:03:15.928Z,55.99
2019-03-29T21:05:46.022Z,56.08
2019-03-29T21:08:16.127Z,56.10
2019-03-29T21:10:55.620Z,56.17
2019-03-29T21:13:17.968Z,56.63
2019-03-29T21:15:48.180Z,56.51
2019-03-29T21:18:18.231Z,56.63
2019-03-29T21:20:48.446Z,56.54
2019-03-29T21:23:18.506Z,56.47
2019-03-29T21:25:48.607Z,56.81
2019-03-29T21:28:18.684Z,56.97
2019-03-29T21:30:48.898Z,56.84
2019-03-29T21:33:18.958Z,56.93
2019-03-29T21:35:49.124Z,57.30
2019-03-29T21:38:19.240Z,57.40
2019-03-29T21:40:49.323Z,58.16
2019-03-29T21:43:19.486Z,58.53
2019-03-29T21:45:49.579Z,58.16
2019-03-29T21:48:28.481Z,57.43
2019-03-29T21:50:51.471Z,57.77
2019-03-29T21:53:22.919Z,57.91
2019-03-29T21:55:53.603Z,57.45
2019-03-29T21:58:23.994Z,57.60
2019-03-29T22:00:54.040Z,57.81
2019-03-29T22:03:24.168Z,57.22
2019-03-29T22:05:54.236Z,57.51
2019-03-29T22:08:24.348Z,57.92
2019-03-29T22:10:54.445Z,57.84
2019-03-29T22:13:24.545Z,57.68
2019-03-29T22:15:54.709Z,57.49
2019-03-29T22:18:37.397Z,57.71
2019-03-29T22:20:56.597Z,57.88
2019-03-29T22:23:26.667Z,58.09
2019-03-29T22:25:56.750Z,58.32
2019-03-29T22:28:26.831Z,58.14
2019-03-29T22:30:56.914Z,58.03
2019-03-29T22:33:27.029Z,57.89
2019-03-29T22:35:57.094Z,57.88
2019-03-29T22:38:27.178Z,57.80
2019-03-29T22:40:57.245Z,57.87
2019-03-29T22:43:27.343Z,57.92
2019-03-29T22:45:57.479Z,57.94
2019-03-29T22:48:27.645Z,58.09
2019-03-29T22:50:57.700Z,59.00
2019-03-29T22:53:27.777Z,59.34
2019-03-29T22:55:57.864Z,60.08
2019-03-29T22:58:28.627Z,60.20
2019-03-29T23:00:59.282Z,60.14
2019-03-29T23:03:29.686Z,60.54
2019-03-29T23:05:59.748Z,60.39
2019-03-29T23:08:29.818Z,59.76
2019-03-29T23:10:59.914Z,59.98
2019-03-29T23:13:31.613Z,60.37
2019-03-29T23:16:01.664Z,60.61
2019-03-29T23:18:31.779Z,60.93
2019-03-29T23:21:01.832Z,60.62
2019-03-29T23:23:31.933Z,60.12
2019-03-29T23:26:01.988Z,59.88
2019-03-29T23:28:32.093Z,59.69
2019-03-29T23:31:05.401Z,59.69
2019-03-29T23:33:33.952Z,59.46
2019-03-29T23:36:03.997Z,59.70
2019-03-29T23:38:34.142Z,59.61
2019-03-29T23:41:04.194Z,59.38
2019-03-29T23:43:34.249Z,59.33
2019-03-29T23:46:04.348Z,59.63
2019-03-29T23:48:34.410Z,59.77
2019-03-29T23:51:04.559Z,59.99
2019-03-29T23:53:34.623Z,60.11
2019-03-29T23:56:04.717Z,60.03
2019-03-29T23:58:34.862Z,60.07
